KPSM/PSM METAR and TAF weather

Enter ICAO airport designator
Station Type Date Time Source
KPSM METAR 2020/09/18 21:56 UTC NOAA

KPSM 182156Z 03004KT 10SM FEW060 SCT250 16/06 A2997 RMK AO2A SLP151 T01560060


Station Type Date Time Source
KPSM Decoded METAR 2020/09/18 21:56 UTC NOAA

Pease Air Force Base / Portsmouth, NH, United States (KPSM) 43-05N 070-49W
Sep 18, 2020 - 05:56 PM EDT / 2020.09.18 2156 UTC
Wind: from the NNE (030 degrees) at 5 MPH (4 KT):0
Visibility: 10 mile(s):0
Sky conditions: partly cloudy
Temperature: 60.1 F (15.6 C)
Dew Point: 42.8 F (6.0 C)
Relative Humidity: 52%
Pressure (altimeter): 29.97 in. Hg (1014 hPa)
ob: KPSM 182156Z 03004KT 10SM FEW060 SCT250 16/06 A2997 RMK AO2A SLP151 T01560060
cycle: 22

Station Type Date Time Source
KPSM TAF 2020/09/18 18:22 UTC NOAA

TAF KPSM 181720Z 1818/1918 35012KT P6SM BKN050
FM190000 34010KT P6SM SKC

Example: see airport list